Terminal Aerodrome Forecast
Issued by NWS

Home | Current Version | Previous Version | Text Only | Print | Product List | Glossary On
Versions: 1 2 3 4 5 6 7 8 9 10 11 12 13 14 15
737
FTUS46 KMTR 192333
TAFSTS
TAF
KSTS 192333Z 2000/2024 32013G20KT P6SM SCT060
     FM200400 33007KT P6SM FEW070
     FM200800 33003KT P6SM SKC
     FM201500 VRB02KT P6SM FEW120
     FM201800 35004KT P6SM FEW120
     FM202100 30006KT P6SM FEW120=

USA.gov is the U.S. government's official web portal to all federal, state and local government web resources and services.